createdAt,value
2018-09-20T00:00:38.074Z,100148.85
2018-09-20T00:03:05.743Z,100148.59
2018-09-20T00:05:33.451Z,100144.95
2018-09-20T00:08:01.098Z,100145.23
2018-09-20T00:10:28.773Z,100147.66
2018-09-20T00:12:56.483Z,100141.25
2018-09-20T00:15:24.149Z,100142.35
2018-09-20T00:17:51.819Z,100145.81
2018-09-20T00:20:19.530Z,100146.08
2018-09-20T00:22:47.283Z,100145.66
2018-09-20T00:25:14.943Z,100145.70
2018-09-20T00:27:42.652Z,100139.66
2018-09-20T00:30:10.332Z,100142.66
2018-09-20T00:32:38.014Z,100137.67
2018-09-20T00:35:05.843Z,100138.48
2018-09-20T00:37:33.513Z,100138.98
2018-09-20T00:40:01.173Z,100139.03
2018-09-20T00:42:28.937Z,100135.81
2018-09-20T00:44:56.601Z,100135.86
2018-09-20T00:47:24.286Z,100131.77
2018-09-20T00:49:52.014Z,100129.70
2018-09-20T00:52:19.678Z,100131.81
2018-09-20T00:54:47.340Z,100136.94
2018-09-20T00:57:15.029Z,100135.78
2018-09-20T00:59:42.681Z,100128.11
2018-09-20T01:02:10.377Z,100126.09
2018-09-20T01:04:38.079Z,100123.70
2018-09-20T01:07:05.787Z,100125.35
2018-09-20T01:09:33.443Z,100122.28
2018-09-20T01:12:01.143Z,100121.98
2018-09-20T01:14:28.810Z,100125.83
2018-09-20T01:16:56.494Z,100125.17
2018-09-20T01:19:24.225Z,100119.20
2018-09-20T01:21:52.355Z,100118.59
2018-09-20T01:24:20.017Z,100119.36
2018-09-20T01:26:47.721Z,100121.65
2018-09-20T01:29:15.391Z,100115.06
2018-09-20T01:31:43.073Z,100116.14
2018-09-20T01:34:10.774Z,100114.22
2018-09-20T01:36:38.473Z,100108.08
2018-09-20T01:39:09.909Z,100113.88
2018-09-20T01:41:37.687Z,100115.34
2018-09-20T01:44:05.357Z,100106.72
2018-09-20T01:46:33.012Z,100106.27
2018-09-20T01:49:00.713Z,100099.45
2018-09-20T01:51:28.397Z,100105.83
2018-09-20T01:53:56.043Z,100107.73
2018-09-20T01:56:23.741Z,100104.98
2018-09-20T01:58:51.398Z,100103.56
2018-09-20T02:01:19.082Z,100109.48
2018-09-20T02:03:46.778Z,100104.72
2018-09-20T02:06:14.441Z,100101.45
2018-09-20T02:08:42.100Z,100108.88
2018-09-20T02:11:09.803Z,100108.61
2018-09-20T02:13:37.474Z,100112.97
2018-09-20T02:16:05.471Z,100114.41
2018-09-20T02:18:33.190Z,100111.40
2018-09-20T02:21:00.864Z,100112.70
2018-09-20T02:23:28.522Z,100111.73
2018-09-20T02:25:56.278Z,100112.17
2018-09-20T02:28:23.941Z,100109.23
2018-09-20T02:30:51.607Z,100105.66
2018-09-20T02:33:19.309Z,100103.34
2018-09-20T02:35:47.028Z,100098.63
2018-09-20T02:38:14.666Z,100099.98
2018-09-20T02:40:42.357Z,100094.99
2018-09-20T02:43:10.184Z,100096.34
2018-09-20T02:45:37.833Z,100092.02
2018-09-20T02:48:05.526Z,100094.39
2018-09-20T02:50:33.201Z,100089.12
2018-09-20T02:53:00.906Z,100089.50
2018-09-20T02:55:28.613Z,100094.69
2018-09-20T02:57:56.347Z,100098.09
2018-09-20T03:00:24.007Z,100093.16
2018-09-20T03:02:51.735Z,100096.12
2018-09-20T03:05:19.414Z,100103.05
2018-09-20T03:07:47.058Z,100113.62
2018-09-20T03:10:14.758Z,100113.20
2018-09-20T03:12:42.418Z,100106.98
2018-09-20T03:15:10.074Z,100109.16
2018-09-20T03:17:37.753Z,100104.58
2018-09-20T03:20:05.516Z,100107.73
2018-09-20T03:22:33.182Z,100111.19
2018-09-20T03:25:00.865Z,100106.27
2018-09-20T03:27:28.550Z,100112.95
2018-09-20T03:29:56.215Z,100103.34
2018-09-20T03:32:23.919Z,100101.80
2018-09-20T03:34:51.578Z,100102.72
2018-09-20T03:37:19.238Z,100111.70
2018-09-20T03:39:46.962Z,100108.25
2018-09-20T03:42:14.680Z,100112.43
2018-09-20T03:44:42.464Z,100111.91
2018-09-20T03:47:10.124Z,100112.94
2018-09-20T03:49:37.785Z,100116.77
2018-09-20T03:52:05.510Z,100120.49
2018-09-20T03:54:33.197Z,100123.19
2018-09-20T03:57:00.859Z,100127.00
2018-09-20T03:59:28.534Z,100131.64
2018-09-20T04:01:56.238Z,100126.41
2018-09-20T04:04:23.908Z,100129.75
2018-09-20T04:06:51.634Z,100128.37
2018-09-20T04:09:19.354Z,100134.42
2018-09-20T04:11:47.030Z,100138.30
2018-09-20T04:14:14.724Z,100134.05
2018-09-20T04:16:42.443Z,100129.02
2018-09-20T04:19:10.094Z,100124.14
2018-09-20T04:21:37.737Z,100126.22
2018-09-20T04:24:06.730Z,100127.09
2018-09-20T04:26:34.410Z,100126.62
2018-09-20T04:29:02.225Z,100127.42
2018-09-20T04:31:30.490Z,100122.20
2018-09-20T04:33:59.448Z,100128.69
2018-09-20T04:36:27.128Z,100133.83
2018-09-20T04:38:54.833Z,100132.50
2018-09-20T04:41:22.482Z,100125.38
2018-09-20T04:43:50.198Z,100115.06
2018-09-20T04:46:17.974Z,100104.58
2018-09-20T04:48:45.651Z,100101.94
2018-09-20T04:51:13.322Z,100094.55
2018-09-20T04:53:41.033Z,100091.70
2018-09-20T04:56:08.723Z,100092.78
2018-09-20T04:58:36.381Z,100097.91
2018-09-20T05:01:04.138Z,100094.89
2018-09-20T05:03:31.793Z,100091.36
2018-09-20T05:05:59.466Z,100092.20
2018-09-20T05:08:27.154Z,100095.16
2018-09-20T05:10:54.803Z,100092.47
2018-09-20T05:13:22.471Z,100092.03
2018-09-20T05:15:50.175Z,100095.14
2018-09-20T05:18:17.834Z,100097.94
2018-09-20T05:20:45.503Z,100093.28
2018-09-20T05:23:13.247Z,100097.48
2018-09-20T05:25:40.911Z,100098.86
2018-09-20T05:28:08.845Z,100103.38
2018-09-20T05:30:36.544Z,100100.22
2018-09-20T05:33:04.226Z,100104.70
2018-09-20T05:35:31.924Z,100107.95
2018-09-20T05:37:59.631Z,100108.12
2018-09-20T05:40:27.269Z,100115.96
2018-09-20T05:42:54.929Z,100118.14
2018-09-20T05:45:22.634Z,100119.23
2018-09-20T05:47:50.277Z,100115.52
2018-09-20T05:50:18.022Z,100122.13
2018-09-20T05:52:45.722Z,100130.52
2018-09-20T05:55:13.607Z,100131.98
2018-09-20T05:57:41.271Z,100135.80
2018-09-20T06:00:09.170Z,100156.72
2018-09-20T06:02:36.914Z,100152.77
2018-09-20T06:05:04.871Z,100159.02
2018-09-20T06:07:32.576Z,100158.14
2018-09-20T06:10:00.398Z,100159.19
2018-09-20T06:12:28.061Z,100173.67
2018-09-20T06:14:55.770Z,100176.03
2018-09-20T06:17:23.894Z,100167.50
2018-09-20T06:19:51.567Z,100175.16
2018-09-20T06:22:19.291Z,100180.38
2018-09-20T06:24:46.973Z,100192.12
2018-09-20T06:27:14.645Z,100188.68
2018-09-20T06:29:42.359Z,100187.14
2018-09-20T06:32:10.024Z,100189.08
2018-09-20T06:34:41.298Z,100181.05
2018-09-20T06:37:09.050Z,100186.52
2018-09-20T06:39:36.735Z,100200.67
2018-09-20T06:42:04.427Z,100204.00
2018-09-20T06:44:32.150Z,100204.07
2018-09-20T06:46:59.817Z,100208.15
2018-09-20T06:49:27.595Z,100203.45
2018-09-20T06:51:55.304Z,100196.66
2018-09-20T06:54:22.995Z,100191.56
2018-09-20T06:56:50.683Z,100202.66
2018-09-20T06:59:18.418Z,100207.69
2018-09-20T07:01:46.062Z,100206.93
2018-09-20T07:04:13.746Z,100208.58
2018-09-20T07:06:41.497Z,100217.61
2018-09-20T07:09:11.022Z,100215.46
2018-09-20T07:11:38.760Z,100214.05
2018-09-20T07:14:06.497Z,100217.38
2018-09-20T07:16:34.186Z,100218.05
2018-09-20T07:19:01.961Z,100220.81
2018-09-20T07:21:29.718Z,100217.30
2018-09-20T07:23:57.426Z,100219.43
2018-09-20T07:26:25.134Z,100217.99
2018-09-20T07:28:52.851Z,100212.89
2018-09-20T07:31:20.515Z,100216.02
2018-09-20T07:33:48.237Z,100215.69
2018-09-20T07:36:15.979Z,100210.53
2018-09-20T07:38:43.639Z,100209.38
2018-09-20T07:41:11.411Z,100210.72
2018-09-20T07:43:39.199Z,100214.66
2018-09-20T07:46:06.917Z,100214.39
2018-09-20T07:48:34.590Z,100210.42
2018-09-20T07:51:02.456Z,100214.54
2018-09-20T07:53:30.146Z,100210.16
2018-09-20T07:55:57.822Z,100208.14
2018-09-20T07:58:25.551Z,100208.14
2018-09-20T08:00:53.213Z,100201.45
2018-09-20T08:03:20.919Z,100189.30
2018-09-20T08:05:48.654Z,100193.81
2018-09-20T08:08:16.342Z,100195.44
2018-09-20T08:10:44.087Z,100197.36
2018-09-20T08:13:11.826Z,100182.40
2018-09-20T08:15:39.563Z,100178.00
2018-09-20T08:18:07.335Z,100187.09
2018-09-20T08:20:35.038Z,100178.37
2018-09-20T08:23:02.698Z,100170.73
2018-09-20T08:25:30.421Z,100176.27
2018-09-20T08:27:58.200Z,100163.59
2018-09-20T08:30:25.911Z,100160.68
2018-09-20T08:32:53.570Z,100149.56
2018-09-20T08:35:21.278Z,100146.80
2018-09-20T08:37:48.991Z,100149.90
2018-09-20T08:40:16.958Z,100145.39
2018-09-20T08:42:44.691Z,100143.28
2018-09-20T08:45:12.375Z,100147.66
2018-09-20T08:47:40.066Z,100137.08
2018-09-20T08:50:07.846Z,100144.30
2018-09-20T08:52:35.627Z,100129.67
2018-09-20T08:55:03.387Z,100131.06
2018-09-20T08:57:36.737Z,100141.44
2018-09-20T09:00:04.503Z,100135.31
2018-09-20T09:02:32.175Z,100131.56
2018-09-20T09:04:59.882Z,100129.88
2018-09-20T09:07:27.551Z,100133.42
2018-09-20T09:09:55.222Z,100136.78
2018-09-20T09:12:22.932Z,100134.05
2018-09-20T09:14:50.595Z,100129.95
2018-09-20T09:17:18.238Z,100125.84
2018-09-20T09:19:45.944Z,100128.08
2018-09-20T09:22:13.641Z,100120.28
2018-09-20T09:24:41.344Z,100127.80
2018-09-20T09:27:09.049Z,100122.28
2018-09-20T09:29:36.715Z,100121.12
2018-09-20T09:32:04.420Z,100114.73
2018-09-20T09:34:32.144Z,100118.39
2018-09-20T09:36:59.790Z,100106.98
2018-09-20T09:39:27.453Z,100110.48
2018-09-20T09:41:55.138Z,100098.70
2018-09-20T09:44:22.846Z,100095.05
2018-09-20T09:46:50.783Z,100097.39
2018-09-20T09:49:18.488Z,100096.08
2018-09-20T09:51:46.145Z,100093.98
2018-09-20T09:54:14.016Z,100082.87
2018-09-20T09:56:41.711Z,100079.36
2018-09-20T09:59:09.400Z,100079.88
2018-09-20T10:01:37.081Z,100068.03
2018-09-20T10:04:04.779Z,100067.13
2018-09-20T10:06:32.461Z,100070.81
2018-09-20T10:09:00.128Z,100072.41
2018-09-20T10:11:27.897Z,100072.75
2018-09-20T10:13:55.655Z,100079.34
2018-09-20T10:16:23.293Z,100076.16
2018-09-20T10:18:51.101Z,100068.39
2018-09-20T10:21:18.812Z,100058.66
2018-09-20T10:23:46.499Z,100058.80
2018-09-20T10:26:14.218Z,100059.14
2018-09-20T10:28:41.887Z,100053.25
2018-09-20T10:31:09.599Z,100051.07
2018-09-20T10:33:37.342Z,100045.92
2018-09-20T10:36:05.125Z,100051.72
2018-09-20T10:38:32.866Z,100050.85
2018-09-20T10:41:00.776Z,100048.75
2018-09-20T10:43:28.430Z,100052.90
2018-09-20T10:45:56.098Z,100040.98
2018-09-20T10:48:23.817Z,100038.28
2018-09-20T10:50:51.501Z,100031.32
2018-09-20T10:53:19.396Z,100019.91
2018-09-20T10:55:47.187Z,100028.70
2018-09-20T10:58:14.914Z,100022.84
2018-09-20T11:00:42.592Z,100025.09
2018-09-20T11:03:10.418Z,100021.32
2018-09-20T11:05:38.087Z,100011.84
2018-09-20T11:08:05.801Z,100010.91
2018-09-20T11:10:33.577Z,100013.51
2018-09-20T11:13:01.200Z,100010.66
2018-09-20T11:15:28.865Z,100009.45
2018-09-20T11:17:56.605Z,100009.09
2018-09-20T11:20:24.317Z,100012.40
2018-09-20T11:22:51.994Z,100013.02
2018-09-20T11:25:19.738Z,100011.14
2018-09-20T11:27:47.410Z,100002.42
2018-09-20T11:30:15.193Z,100002.42
2018-09-20T11:32:42.998Z,99997.94
2018-09-20T11:35:10.741Z,99995.85
2018-09-20T11:37:38.492Z,99997.75
2018-09-20T11:40:06.330Z,99996.80
2018-09-20T11:42:34.023Z,99986.99
2018-09-20T11:45:01.753Z,99990.34
2018-09-20T11:47:29.501Z,99985.30
2018-09-20T11:49:57.242Z,99990.10
2018-09-20T11:52:24.997Z,99977.55
2018-09-20T11:54:52.769Z,99971.05
2018-09-20T11:57:20.689Z,99959.72
2018-09-20T11:59:48.477Z,99962.06
2018-09-20T12:02:16.202Z,99956.13
2018-09-20T12:04:43.889Z,99951.15
2018-09-20T12:07:11.610Z,99945.41
2018-09-20T12:09:39.349Z,99954.54
2018-09-20T12:12:07.067Z,99949.45
2018-09-20T12:14:34.835Z,99945.61
2018-09-20T12:17:02.525Z,99936.56
2018-09-20T12:19:30.274Z,99940.75
2018-09-20T12:21:58.034Z,99935.97
2018-09-20T12:24:25.775Z,99926.08
2018-09-20T12:26:53.516Z,99920.70
2018-09-20T12:29:21.239Z,99916.38
2018-09-20T12:31:49.078Z,99915.47
2018-09-20T12:34:16.853Z,99917.79
2018-09-20T12:36:44.634Z,99918.66
2018-09-20T12:39:13.811Z,99914.17
2018-09-20T12:41:41.938Z,99915.81
2018-09-20T12:44:09.985Z,99917.85
2018-09-20T12:46:37.770Z,99922.49
2018-09-20T12:49:05.626Z,99916.09
2018-09-20T12:51:33.981Z,99918.36
2018-09-20T12:54:01.790Z,99919.36
2018-09-20T12:56:29.619Z,99917.63
2018-09-20T12:58:57.341Z,99913.88
2018-09-20T13:01:25.099Z,99912.66
2018-09-20T13:03:52.834Z,99907.66
2018-09-20T13:06:20.611Z,99898.00
2018-09-20T13:08:48.362Z,99908.26
2018-09-20T13:11:16.174Z,99909.88
2018-09-20T13:13:43.930Z,99909.62
2018-09-20T13:16:11.703Z,99909.37
2018-09-20T13:18:39.422Z,99900.10
2018-09-20T13:21:07.362Z,99908.86
2018-09-20T13:23:35.170Z,99900.22
2018-09-20T13:26:02.926Z,99898.84
2018-09-20T13:28:30.633Z,99900.41
2018-09-20T13:30:58.398Z,99893.20
2018-09-20T13:33:26.086Z,99883.56
2018-09-20T13:35:53.826Z,99890.16
2018-09-20T13:38:21.612Z,99880.64
2018-09-20T13:40:49.379Z,99881.94
2018-09-20T13:43:17.221Z,99881.31
2018-09-20T13:45:45.013Z,99876.19
2018-09-20T13:48:12.671Z,99871.41
2018-09-20T13:50:40.394Z,99873.97
2018-09-20T13:53:08.130Z,99867.61
2018-09-20T13:55:35.818Z,99863.59
2018-09-20T13:58:03.594Z,99854.78
2018-09-20T14:00:31.276Z,99854.38
2018-09-20T14:02:59.020Z,99850.91
2018-09-20T14:05:26.771Z,99858.75
2018-09-20T14:07:54.555Z,99855.03
2018-09-20T14:10:22.302Z,99853.25
2018-09-20T14:12:50.010Z,99845.02
2018-09-20T14:15:17.781Z,99851.24
2018-09-20T14:17:45.506Z,99841.24
2018-09-20T14:20:13.271Z,99851.59
2018-09-20T14:22:41.065Z,99853.31
2018-09-20T14:25:08.538Z,99852.48
2018-09-20T14:27:36.216Z,99840.19
2018-09-20T14:30:04.035Z,99834.75
2018-09-20T14:32:31.822Z,99843.45
2018-09-20T14:34:59.537Z,99843.28
2018-09-20T14:37:27.309Z,99841.92
2018-09-20T14:39:55.070Z,99838.28
2018-09-20T14:42:22.797Z,99836.20
2018-09-20T14:44:50.601Z,99842.41
2018-09-20T14:47:18.370Z,99842.58
2018-09-20T14:49:46.090Z,99839.23
2018-09-20T14:52:13.845Z,99839.81
2018-09-20T14:54:41.593Z,99839.30
2018-09-20T14:57:09.342Z,99833.95
2018-09-20T14:59:37.117Z,99832.39
2018-09-20T15:02:04.886Z,99828.34
2018-09-20T15:04:32.574Z,99831.45
2018-09-20T15:07:00.313Z,99837.18
2018-09-20T15:09:28.018Z,99830.30
2018-09-20T15:11:55.729Z,99829.19
2018-09-20T15:14:23.513Z,99828.58
2018-09-20T15:16:51.221Z,99828.46
2018-09-20T15:19:18.946Z,99829.34
2018-09-20T15:21:46.737Z,99830.89
2018-09-20T15:24:14.438Z,99831.08
2018-09-20T15:26:42.170Z,99832.20
2018-09-20T15:29:09.981Z,99831.17
2018-09-20T15:31:37.720Z,99837.81
2018-09-20T15:34:05.493Z,99836.14
2018-09-20T15:36:33.369Z,99837.85
2018-09-20T15:39:01.064Z,99836.69
2018-09-20T15:41:28.858Z,99839.04
2018-09-20T15:43:56.618Z,99842.47
2018-09-20T15:46:24.331Z,99845.23
2018-09-20T15:48:52.065Z,99850.06
2018-09-20T15:51:20.741Z,99853.07
2018-09-20T15:53:48.466Z,99855.27
2018-09-20T15:56:16.181Z,99857.64
2018-09-20T15:58:43.958Z,99855.03
2018-09-20T16:01:12.405Z,99853.02
2018-09-20T16:03:40.247Z,99851.29
2018-09-20T16:06:08.026Z,99855.64
2018-09-20T16:08:35.734Z,99856.52
2018-09-20T16:11:03.505Z,99859.56
2018-09-20T16:13:31.219Z,99863.22
2018-09-20T16:15:58.938Z,99864.94
2018-09-20T16:18:26.710Z,99861.39
2018-09-20T16:20:54.445Z,99863.31
2018-09-20T16:23:22.234Z,99871.63
2018-09-20T16:25:49.903Z,99868.86
2018-09-20T16:28:37.451Z,99867.16
2018-09-20T16:31:18.929Z,99872.89
2018-09-20T16:34:05.421Z,99874.23
2018-09-20T16:36:45.949Z,99881.53
2018-09-20T16:39:19.301Z,99876.68
2018-09-20T16:41:49.913Z,99878.56
2018-09-20T16:44:17.633Z,99887.12
2018-09-20T16:46:45.451Z,99885.71
2018-09-20T16:49:13.117Z,99883.98
2018-09-20T16:51:40.781Z,99885.94
2018-09-20T16:54:08.517Z,99886.33
2018-09-20T16:56:36.226Z,99889.34
2018-09-20T16:59:03.993Z,99896.19
2018-09-20T17:01:31.777Z,99887.66
2018-09-20T17:03:59.524Z,99892.86
2018-09-20T17:06:27.222Z,99890.58
2018-09-20T17:08:54.958Z,99896.80
2018-09-20T17:11:23.643Z,99900.90
2018-09-20T17:13:51.310Z,99904.45
2018-09-20T17:16:19.132Z,99906.34
2018-09-20T17:18:46.786Z,99904.13
2018-09-20T17:21:14.591Z,99908.97
2018-09-20T17:23:42.573Z,99918.22
2018-09-20T17:26:10.233Z,99912.16
2018-09-20T17:28:37.926Z,99910.06
2018-09-20T17:31:05.645Z,99911.97
2018-09-20T17:33:33.379Z,99918.03
2018-09-20T17:36:01.284Z,99922.91
2018-09-20T17:38:30.016Z,99917.67
2018-09-20T17:41:01.714Z,99916.34
2018-09-20T17:43:33.849Z,99926.81
2018-09-20T17:46:01.521Z,99924.48
2018-09-20T17:48:29.244Z,99926.76
2018-09-20T17:50:57.342Z,99922.23
2018-09-20T17:53:26.416Z,99924.88
2018-09-20T17:55:55.515Z,99918.56
2018-09-20T17:58:23.716Z,99921.00
2018-09-20T18:00:51.395Z,99925.09
2018-09-20T18:03:19.112Z,99925.52
2018-09-20T18:05:46.870Z,99926.36
2018-09-20T18:08:14.554Z,99920.56
2018-09-20T18:10:42.287Z,99917.28
2018-09-20T18:13:09.992Z,99919.69
2018-09-20T18:15:37.686Z,99923.73
2018-09-20T18:18:05.480Z,99924.19
2018-09-20T18:20:33.181Z,99924.69
2018-09-20T18:23:00.910Z,99929.56
2018-09-20T18:25:28.616Z,99926.63
2018-09-20T18:27:56.643Z,99922.53
2018-09-20T18:30:24.323Z,99922.04
2018-09-20T18:32:52.003Z,99926.11
2018-09-20T18:35:19.819Z,99921.64
2018-09-20T18:37:47.610Z,99926.29
2018-09-20T18:40:15.353Z,99921.08
2018-09-20T18:42:43.256Z,99927.00
2018-09-20T18:45:10.838Z,99925.37
2018-09-20T18:48:09.807Z,99922.18
2018-09-20T18:50:37.477Z,99919.71
2018-09-20T18:53:05.215Z,99918.64
2018-09-20T18:55:33.009Z,99919.39
2018-09-20T18:58:00.624Z,99919.09
2018-09-20T19:00:28.270Z,99912.77
2018-09-20T19:02:55.973Z,99912.72
2018-09-20T19:05:23.678Z,99914.75
2018-09-20T19:07:51.374Z,99914.71
2018-09-20T19:10:19.092Z,99910.64
2018-09-20T19:12:46.775Z,99915.64
2018-09-20T19:15:14.481Z,99917.55
2018-09-20T19:17:42.218Z,99912.76
2018-09-20T19:20:09.885Z,99919.61
2018-09-20T19:22:37.611Z,99921.73
2018-09-20T19:25:05.737Z,99912.64
2018-09-20T19:27:33.426Z,99917.64
2018-09-20T19:30:01.132Z,99918.29
2018-09-20T19:32:28.859Z,99914.70
2018-09-20T19:34:56.517Z,99916.57
2018-09-20T19:37:24.222Z,99924.94
2018-09-20T19:39:51.973Z,99929.73
2018-09-20T19:42:25.612Z,99924.14
2018-09-20T19:44:53.339Z,99921.47
2018-09-20T19:47:20.992Z,99924.30
2018-09-20T19:49:48.675Z,99922.84
2018-09-20T19:52:16.496Z,99930.63
2018-09-20T19:54:44.171Z,99930.31
2018-09-20T19:57:11.844Z,99935.53
2018-09-20T19:59:39.762Z,99935.71
2018-09-20T20:02:07.442Z,99945.25
2018-09-20T20:04:35.249Z,99945.20
2018-09-20T20:07:03.058Z,99954.69
2018-09-20T20:09:30.754Z,99957.08
2018-09-20T20:11:58.499Z,99962.14
2018-09-20T20:14:26.267Z,99962.68
2018-09-20T20:16:54.027Z,99964.06
2018-09-20T20:19:21.838Z,99967.42
2018-09-20T20:21:49.682Z,99960.40
2018-09-20T20:24:17.397Z,99966.09
2018-09-20T20:26:45.125Z,99962.08
2018-09-20T20:29:12.889Z,99959.59
2018-09-20T20:31:40.661Z,99955.23
2018-09-20T20:34:08.350Z,99964.58
2018-09-20T20:36:36.119Z,99958.55
2018-09-20T20:39:05.802Z,99972.32
2018-09-20T20:41:33.489Z,99963.20
2018-09-20T20:44:01.235Z,99958.35
2018-09-20T20:46:28.973Z,99955.09
2018-09-20T20:48:56.670Z,99952.41
2018-09-20T20:51:24.542Z,99946.67
2018-09-20T20:53:52.282Z,99948.77
2018-09-20T20:56:20.026Z,99946.80
2018-09-20T20:58:47.826Z,99958.57
2018-09-20T21:01:18.411Z,99955.59
2018-09-20T21:03:46.334Z,99957.27
2018-09-20T21:06:14.297Z,99952.17
2018-09-20T21:08:42.127Z,99954.75
2018-09-20T21:11:09.857Z,99955.00
2018-09-20T21:13:37.684Z,99956.83
2018-09-20T21:16:05.418Z,99962.61
2018-09-20T21:18:33.153Z,99954.75
2018-09-20T21:21:00.950Z,99954.87
2018-09-20T21:23:28.650Z,99955.25
2018-09-20T21:25:56.527Z,99958.62
2018-09-20T21:28:24.312Z,99957.63
2018-09-20T21:30:52.030Z,99957.39
2018-09-20T21:33:19.815Z,99954.43
2018-09-20T21:35:47.519Z,99948.55
2018-09-20T21:38:15.203Z,99949.20
2018-09-20T21:40:42.877Z,99947.91
2018-09-20T21:43:10.683Z,99949.27
2018-09-20T21:45:38.401Z,99950.33
2018-09-20T21:48:06.446Z,99946.09
2018-09-20T21:50:34.210Z,99952.18
2018-09-20T21:53:01.925Z,99944.40
2018-09-20T21:55:29.653Z,99951.16
2018-09-20T21:57:57.374Z,99948.12
2018-09-20T22:00:25.139Z,99943.05
2018-09-20T22:02:58.514Z,99950.14
2018-09-20T22:05:26.209Z,99941.53
2018-09-20T22:07:53.879Z,99942.55
2018-09-20T22:10:21.682Z,99937.44
2018-09-20T22:12:49.377Z,99939.33
2018-09-20T22:15:21.890Z,99930.41
2018-09-20T22:17:49.575Z,99922.66
2018-09-20T22:20:17.357Z,99928.20
2018-09-20T22:22:45.317Z,99918.66
2018-09-20T22:25:13.268Z,99927.95
2018-09-20T22:27:41.013Z,99920.52
2018-09-20T22:30:08.829Z,99922.61
2018-09-20T22:32:36.598Z,99919.49
2018-09-20T22:35:04.623Z,99919.69
2018-09-20T22:37:32.323Z,99924.42
2018-09-20T22:39:59.978Z,99923.20
2018-09-20T22:42:27.906Z,99935.16
2018-09-20T22:44:55.657Z,99926.16
2018-09-20T22:47:23.316Z,99929.70
2018-09-20T22:49:51.053Z,99925.87
2018-09-20T22:52:18.749Z,99926.53
2018-09-20T22:54:46.402Z,99927.09
2018-09-20T22:57:14.281Z,99933.08
2018-09-20T22:59:42.960Z,99936.31
2018-09-20T23:02:10.713Z,99930.27
2018-09-20T23:04:38.370Z,99931.78
2018-09-20T23:07:06.265Z,99937.73
2018-09-20T23:09:33.918Z,99941.64
2018-09-20T23:12:01.659Z,99938.89
2018-09-20T23:14:29.377Z,99939.12
2018-09-20T23:16:57.150Z,99938.83
2018-09-20T23:19:24.822Z,99940.96
2018-09-20T23:21:52.581Z,99937.70
2018-09-20T23:24:20.246Z,99940.37
2018-09-20T23:26:47.921Z,99938.45
2018-09-20T23:29:15.667Z,99943.49
2018-09-20T23:31:43.337Z,99942.75
2018-09-20T23:34:11.035Z,99934.78
2018-09-20T23:36:38.751Z,99934.84
2018-09-20T23:39:08.834Z,99933.20
2018-09-20T23:41:36.585Z,99932.84
2018-09-20T23:44:04.421Z,99928.20
2018-09-20T23:46:32.094Z,99933.00
2018-09-20T23:48:59.778Z,99927.82
2018-09-20T23:51:27.482Z,99933.37
2018-09-20T23:53:55.297Z,99938.59
2018-09-20T23:56:23.010Z,99944.05
2018-09-20T23:58:50.729Z,99946.77
